Time;durP1;ratioP1;P1;durP2;ratioP2;P2;SDS_P1;SDS_P2;PMS_P1;PMS_P2;Temp;Humidity;BMP_temperature;BMP_pressure;BME280_temperature;BME280_humidity;BME280_pressure;Samples;Min_cycle;Max_cycle;Signal;HPM_P1;HPM_P2
2021/07/13 00:00:24;;;;;;;15.77;11.50;;;;;;;16.21;87.60;99798.16;5060727;28;20049;-63
2021/07/13 00:02:50;;;;;;;12.75;10.60;;;;;;;16.20;87.75;99791.06;5062143;28;20086;-63
2021/07/13 00:05:19;;;;;;;13.15;11.10;;;;;;;16.18;87.69;99793.13;5049743;28;20106;-63
2021/07/13 00:07:49;;;;;;;12.15;10.57;;;;;;;16.17;87.75;99796.03;5055697;28;20439;-61
2021/07/13 00:10:19;;;;;;;14.15;10.88;;;;;;;16.15;87.65;99801.63;5062625;28;20053;-63
2021/07/13 00:12:45;;;;;;;14.45;10.73;;;;;;;16.10;87.93;99801.34;5062496;28;20048;-62
2021/07/13 00:15:14;;;;;;;13.60;11.70;;;;;;;15.99;88.37;99799.16;5054328;28;20578;-62
2021/07/13 00:17:41;;;;;;;14.23;12.00;;;;;;;15.95;88.72;99795.97;5052639;28;20094;-63
2021/07/13 00:20:09;;;;;;;13.75;10.75;;;;;;;15.95;88.99;99785.16;5068036;28;20094;-58
2021/07/13 00:22:35;;;;;;;14.18;11.05;;;;;;;15.96;89.01;99781.41;5055265;28;20101;-63
2021/07/13 00:25:04;;;;;;;15.90;12.40;;;;;;;16.04;88.71;99775.91;5057049;28;20072;-63
2021/07/13 00:27:30;;;;;;;14.60;12.30;;;;;;;16.09;88.64;99770.72;5064510;28;20078;-60
2021/07/13 00:29:56;;;;;;;16.55;12.90;;;;;;;16.00;89.21;99769.19;5050368;28;20133;-63
2021/07/13 00:32:23;;;;;;;11.95;9.73;;;;;;;16.01;88.88;99770.88;5068680;28;20049;-61
2021/07/13 00:34:49;;;;;;;13.73;10.98;;;;;;;15.97;89.01;99763.31;5069605;28;20562;-62
2021/07/13 00:37:15;;;;;;;15.65;11.68;;;;;;;15.93;89.31;99760.16;5066448;28;20072;-63
2021/07/13 00:39:42;;;;;;;11.77;9.60;;;;;;;15.94;89.03;99759.13;5062431;28;20079;-59
2021/07/13 00:42:13;;;;;;;13.10;10.05;;;;;;;15.90;89.55;99763.25;5057424;28;20146;-61
2021/07/13 00:44:41;;;;;;;12.52;9.80;;;;;;;15.93;89.61;99759.31;5052813;28;20051;-61
2021/07/13 00:47:07;;;;;;;13.60;11.10;;;;;;;15.89;89.35;99763.44;5050073;28;20114;-61
2021/07/13 00:49:34;;;;;;;12.70;10.50;;;;;;;15.83;89.42;99761.47;5054815;28;20178;-66
2021/07/13 00:52:00;;;;;;;14.07;11.48;;;;;;;15.69;89.34;99760.47;5063138;28;20056;-65
2021/07/13 00:54:27;;;;;;;12.73;10.05;;;;;;;15.61;89.48;99747.03;5061109;28;20057;-65
2021/07/13 00:56:56;;;;;;;11.20;8.80;;;;;;;15.56;89.56;99760.28;5068583;28;21371;-64
2021/07/13 00:59:24;;;;;;;12.63;8.60;;;;;;;15.51;89.56;99752.75;5066491;28;20049;-65
2021/07/13 01:01:50;;;;;;;12.75;10.43;;;;;;;15.52;89.28;99748.16;5067667;28;20102;-64
2021/07/13 01:04:18;;;;;;;15.80;11.10;;;;;;;15.42;90.08;99749.28;5062173;28;20113;-64
2021/07/13 01:06:50;;;;;;;16.98;11.63;;;;;;;15.38;90.21;99758.78;5053053;28;20090;-66
2021/07/13 01:09:27;;;;;;;14.38;9.85;;;;;;;15.37;90.14;99746.28;5051921;28;20041;-62
2021/07/13 01:12:02;;;;;;;12.25;9.68;;;;;;;15.37;90.11;99745.44;5063915;28;20049;-62
2021/07/13 01:14:35;;;;;;;12.35;9.95;;;;;;;15.40;90.11;99745.94;5058950;28;20049;-62
2021/07/13 01:17:04;;;;;;;13.95;11.07;;;;;;;15.39;89.97;99744.25;5058804;28;20492;-59
2021/07/13 01:19:54;;;;;;;15.90;11.50;;;;;;;15.32;90.40;99750.59;5069237;28;20447;-61
2021/07/13 01:22:26;;;;;;;13.73;10.98;;;;;;;15.27;90.47;99751.13;5060410;28;20053;-61
2021/07/13 01:25:07;;;;;;;14.00;10.77;;;;;;;15.22;90.52;99748.16;5053940;28;20044;-61
2021/07/13 01:27:57;;;;;;;12.43;10.10;;;;;;;15.13;90.79;99747.41;5055277;28;20056;-62
2021/07/13 01:30:26;;;;;;;11.25;9.32;;;;;;;15.08;91.10;99740.88;5059093;28;20506;-60
2021/07/13 01:32:57;;;;;;;13.20;9.32;;;;;;;15.10;91.35;99741.53;5061513;28;20048;-62
2021/07/13 01:35:28;;;;;;;13.45;9.55;;;;;;;15.09;91.36;99735.28;5051729;28;20044;-61
2021/07/13 01:37:56;;;;;;;13.15;10.63;;;;;;;15.04;91.42;99745.00;5061801;28;20049;-62
2021/07/13 01:40:25;;;;;;;12.43;10.25;;;;;;;15.04;91.12;99739.59;5066313;28;20049;-60
2021/07/13 01:42:51;;;;;;;10.00;8.10;;;;;;;15.04;91.13;99736.88;5058557;28;20565;-62
2021/07/13 01:45:19;;;;;;;11.45;8.75;;;;;;;15.04;91.08;99734.19;5063594;28;20045;-61
2021/07/13 01:47:47;;;;;;;15.43;10.35;;;;;;;15.06;91.23;99732.13;5050818;28;20166;-61
2021/07/13 01:50:14;;;;;;;13.10;10.60;;;;;;;15.05;91.12;99730.47;5061716;28;20044;-61
2021/07/13 01:52:42;;;;;;;11.32;9.23;;;;;;;15.00;91.11;99730.16;5062826;28;20311;-62
2021/07/13 01:55:10;;;;;;;12.95;9.98;;;;;;;14.98;91.17;99730.34;5054587;28;20181;-60
2021/07/13 01:57:37;;;;;;;10.93;8.73;;;;;;;14.98;91.12;99734.91;5061206;28;20044;-64
2021/07/13 02:00:06;;;;;;;14.05;9.93;;;;;;;14.96;90.76;99728.84;5064155;28;20404;-61
2021/07/13 02:02:36;;;;;;;14.32;11.63;;;;;;;14.79;90.69;99730.88;5062573;28;20048;-60
2021/07/13 02:05:06;;;;;;;17.50;13.35;;;;;;;14.64;91.00;99730.84;5065617;28;20056;-58
2021/07/13 02:07:36;;;;;;;14.88;10.80;;;;;;;14.58;91.29;99726.19;5060990;28;20048;-61
2021/07/13 02:10:03;;;;;;;16.80;10.32;;;;;;;14.54;91.38;99732.97;5049489;28;20465;-58
2021/07/13 02:12:30;;;;;;;15.45;11.18;;;;;;;14.59;91.70;99735.97;5061037;28;20114;-59
2021/07/13 02:14:56;;;;;;;18.27;11.27;;;;;;;14.67;91.90;99725.06;5056714;28;20135;-62
2021/07/13 02:17:29;;;;;;;14.88;9.98;;;;;;;14.63;91.95;99723.75;5056029;28;22921;-60
2021/07/13 02:19:58;;;;;;;13.48;9.73;;;;;;;14.59;92.08;99722.47;5058347;28;20048;-63
2021/07/13 02:22:24;;;;;;;11.75;9.23;;;;;;;14.55;91.95;99721.97;5063687;28;20052;-62
2021/07/13 02:24:50;;;;;;;11.23;8.52;;;;;;;14.57;91.78;99716.41;5056845;28;20098;-62
2021/07/13 02:27:20;;;;;;;17.30;10.98;;;;;;;14.52;91.44;99721.50;5057247;28;20053;-61
2021/07/13 02:29:51;;;;;;;12.00;9.25;;;;;;;14.55;91.51;99713.88;5063762;28;20044;-64
2021/07/13 02:32:24;;;;;;;12.00;9.10;;;;;;;14.53;91.57;99710.50;5061293;28;20492;-59
2021/07/13 02:34:51;;;;;;;14.40;11.02;;;;;;;14.49;92.12;99713.78;5055866;28;20052;-63
2021/07/13 02:37:21;;;;;;;15.65;10.82;;;;;;;14.54;92.11;99705.94;5054932;28;20075;-61
2021/07/13 02:39:48;;;;;;;14.93;9.85;;;;;;;14.50;91.89;99699.25;5055062;28;20107;-61
2021/07/13 02:42:15;;;;;;;13.15;9.43;;;;;;;14.51;92.08;99703.63;5063189;28;20098;-62
2021/07/13 02:44:42;;;;;;;12.32;10.20;;;;;;;14.55;92.32;99700.38;5066938;28;20078;-61
2021/07/13 02:47:13;;;;;;;12.50;9.00;;;;;;;14.49;92.53;99702.97;5059520;28;20075;-62
2021/07/13 02:49:45;;;;;;;11.73;9.10;;;;;;;14.49;92.52;99708.38;5055852;28;20487;-62
2021/07/13 02:52:13;;;;;;;12.55;9.63;;;;;;;14.48;92.57;99702.13;5068735;28;20114;-64
2021/07/13 02:54:41;;;;;;;15.45;9.30;;;;;;;14.47;92.66;99705.03;5056922;28;20060;-61
2021/07/13 02:57:09;;;;;;;12.63;10.50;;;;;;;14.45;93.20;99698.97;5048373;28;20041;-60
2021/07/13 02:59:37;;;;;;;11.50;8.73;;;;;;;14.45;93.05;99691.72;5066250;28;20048;-63
2021/07/13 03:02:05;;;;;;;14.73;10.90;;;;;;;14.46;93.11;99693.38;5066072;28;20049;-63
2021/07/13 03:04:32;;;;;;;14.95;11.00;;;;;;;14.49;93.17;99681.38;5062166;28;20454;-60
2021/07/13 03:06:58;;;;;;;14.68;10.27;;;;;;;14.52;93.01;99698.03;5054538;28;20699;-62
2021/07/13 03:09:25;;;;;;;13.48;10.73;;;;;;;14.53;92.78;99696.19;5056400;28;20049;-62
2021/07/13 03:11:53;;;;;;;13.18;10.20;;;;;;;14.54;92.67;99700.56;5060752;28;20072;-62
2021/07/13 03:14:21;;;;;;;14.50;9.93;;;;;;;14.58;92.24;99704.59;5057258;28;20102;-65
2021/07/13 03:16:50;;;;;;;11.85;8.77;;;;;;;14.60;92.10;99695.28;5058756;28;20416;-65
2021/07/13 03:19:17;;;;;;;11.20;9.13;;;;;;;14.60;91.83;99694.44;5060457;28;20149;-62
2021/07/13 03:21:50;;;;;;;10.82;8.23;;;;;;;14.54;91.25;99701.38;5062064;28;20581;-59
2021/07/13 03:24:18;;;;;;;9.80;8.00;;;;;;;14.48;90.99;99699.44;5057447;28;20045;-62
2021/07/13 03:26:47;;;;;;;11.48;9.68;;;;;;;14.40;91.03;99694.06;5063262;28;20052;-60
2021/07/13 03:29:16;;;;;;;11.55;9.60;;;;;;;14.33;91.07;99691.28;5056269;28;20206;-63
2021/07/13 03:31:43;;;;;;;10.98;8.70;;;;;;;14.35;91.09;99693.78;5063826;28;20084;-63
2021/07/13 03:34:11;;;;;;;9.90;7.55;;;;;;;14.41;91.03;99694.91;5060247;28;20374;-61
2021/07/13 03:36:38;;;;;;;11.70;8.80;;;;;;;14.42;91.01;99691.19;5061310;28;20130;-61
2021/07/13 03:39:05;;;;;;;12.75;10.15;;;;;;;14.39;91.35;99684.28;5053791;28;20052;-60
2021/07/13 03:41:32;;;;;;;10.45;8.20;;;;;;;14.41;91.25;99684.09;5059330;28;20726;-64
2021/07/13 03:44:01;;;;;;;9.35;7.40;;;;;;;14.44;90.95;99686.44;5058755;28;20045;-62
2021/07/13 03:46:29;;;;;;;9.40;7.65;;;;;;;14.43;90.86;99688.28;5062449;28;20563;-62
2021/07/13 03:48:56;;;;;;;11.13;7.75;;;;;;;14.44;90.96;99689.13;5059196;28;20093;-64
2021/07/13 03:51:35;;;;;;;11.15;7.55;;;;;;;14.48;90.95;99690.50;5061737;28;20048;-62
2021/07/13 03:54:01;;;;;;;10.70;8.52;;;;;;;14.46;91.11;99687.16;5057162;28;20044;-62
2021/07/13 03:56:28;;;;;;;11.05;8.77;;;;;;;14.53;91.23;99690.78;5062240;28;20113;-62
2021/07/13 03:58:55;;;;;;;12.10;9.32;;;;;;;14.61;91.32;99690.72;5065083;28;20098;-62
2021/07/13 04:01:21;;;;;;;11.45;8.98;;;;;;;14.65;91.35;99686.59;5065029;28;20052;-63
2021/07/13 04:03:49;;;;;;;11.43;8.38;;;;;;;14.72;91.02;99692.13;5061882;28;20496;-61
2021/07/13 04:06:15;;;;;;;9.98;7.03;;;;;;;14.80;90.81;99701.00;5059416;28;20048;-61
2021/07/13 04:08:41;;;;;;;8.23;6.88;;;;;;;14.90;90.42;99696.13;5057461;28;20236;-60
2021/07/13 04:11:08;;;;;;;15.43;11.38;;;;;;;14.95;89.77;99703.69;5060510;28;20081;-58
2021/07/13 04:13:34;;;;;;;12.18;8.30;;;;;;;15.00;89.62;99701.28;5054601;28;20040;-63
2021/07/13 04:16:01;;;;;;;9.85;7.78;;;;;;;15.10;89.39;99695.59;5059857;28;20041;-61
2021/07/13 04:18:27;;;;;;;10.80;8.50;;;;;;;15.15;89.13;99699.44;5057842;28;20604;-63
2021/07/13 04:20:54;;;;;;;11.55;9.18;;;;;;;15.25;89.07;99703.69;5054056;28;20431;-63
2021/07/13 04:23:21;;;;;;;13.52;9.80;;;;;;;15.35;88.74;99702.38;5062572;28;20080;-60
2021/07/13 04:25:48;;;;;;;11.45;9.27;;;;;;;15.48;88.21;99705.25;5059551;28;20307;-62
2021/07/13 04:28:14;;;;;;;12.55;10.25;;;;;;;15.58;87.67;99712.25;5058516;28;20110;-60
2021/07/13 04:30:41;;;;;;;12.23;9.48;;;;;;;15.66;87.53;99718.41;5058469;28;20760;-62
2021/07/13 04:33:07;;;;;;;10.38;8.80;;;;;;;15.78;87.15;99718.75;5061407;28;20496;-62
2021/07/13 04:35:33;;;;;;;10.20;7.15;;;;;;;15.90;86.92;99724.53;5063826;28;20076;-63
2021/07/13 04:38:01;;;;;;;12.65;8.80;;;;;;;16.00;86.36;99728.59;5053216;28;20093;-63
2021/07/13 04:40:27;;;;;;;8.98;7.82;;;;;;;16.11;86.64;99726.41;5054083;28;20145;-61
2021/07/13 04:42:54;;;;;;;10.90;8.57;;;;;;;16.23;86.55;99728.41;5056197;28;20072;-62
2021/07/13 04:45:20;;;;;;;16.50;13.25;;;;;;;16.34;86.67;99722.50;5055615;28;20139;-64
2021/07/13 04:47:46;;;;;;;18.50;15.07;;;;;;;16.53;86.94;99718.25;5064784;28;20040;-62
2021/07/13 04:50:13;;;;;;;27.33;17.83;;;;;;;16.65;86.81;99719.41;5060278;28;20080;-61
2021/07/13 04:52:39;;;;;;;25.40;18.00;;;;;;;16.83;86.42;99720.84;5063188;28;20123;-60
2021/07/13 04:55:08;;;;;;;23.10;16.98;;;;;;;16.95;85.52;99713.84;5053372;28;20041;-60
2021/07/13 04:57:35;;;;;;;21.40;17.15;;;;;;;17.10;84.75;99717.28;5057687;28;20048;-60
2021/07/13 05:00:01;;;;;;;22.83;18.15;;;;;;;17.21;84.96;99724.00;5063179;28;20573;-61
2021/07/13 05:02:27;;;;;;;22.42;16.77;;;;;;;17.32;84.05;99712.59;5060867;28;20074;-61
2021/07/13 05:04:54;;;;;;;22.80;17.73;;;;;;;17.45;83.15;99715.38;5058478;28;20711;-63
2021/07/13 05:07:22;;;;;;;19.92;12.98;;;;;;;17.57;83.25;99718.34;5053160;28;20053;-60
2021/07/13 05:09:48;;;;;;;19.15;15.30;;;;;;;17.68;81.91;99723.19;5059491;28;20567;-58
2021/07/13 05:12:16;;;;;;;19.25;15.63;;;;;;;17.77;80.58;99716.59;5056113;28;20080;-62
2021/07/13 05:14:42;;;;;;;15.10;12.50;;;;;;;17.91;80.66;99716.63;5055444;28;20064;-62
2021/07/13 05:17:10;;;;;;;14.02;11.70;;;;;;;18.05;80.81;99708.31;5054797;28;20450;-61
2021/07/13 05:19:38;;;;;;;13.95;11.40;;;;;;;18.19;80.75;99714.59;5059438;28;20041;-59
2021/07/13 05:22:08;;;;;;;16.20;13.63;;;;;;;18.31;78.08;99707.53;5063249;28;20438;-61
2021/07/13 05:24:34;;;;;;;15.75;12.65;;;;;;;18.50;78.43;99705.03;5049640;28;20041;-62
2021/07/13 05:27:01;;;;;;;15.60;13.50;;;;;;;18.57;77.23;99708.56;5056580;28;20094;-60
2021/07/13 05:29:29;;;;;;;15.48;13.15;;;;;;;18.75;76.92;99706.09;5054149;28;20122;-62
2021/07/13 05:31:55;;;;;;;17.27;12.57;;;;;;;18.82;77.38;99704.19;5062147;28;20040;-62
2021/07/13 05:34:21;;;;;;;14.43;12.10;;;;;;;18.82;75.96;99703.38;5056197;28;20044;-60
2021/07/13 05:36:47;;;;;;;13.85;11.40;;;;;;;18.92;75.78;99709.22;5059865;28;20076;-62
2021/07/13 05:39:14;;;;;;;14.35;10.88;;;;;;;19.09;75.61;99707.75;5059906;28;20049;-57
2021/07/13 05:41:40;;;;;;;13.68;11.63;;;;;;;19.23;75.11;99698.50;5064248;28;20086;-60
2021/07/13 05:44:07;;;;;;;12.65;10.70;;;;;;;19.43;74.59;99698.44;5060504;28;20094;-62
2021/07/13 05:46:35;;;;;;;12.50;10.75;;;;;;;19.60;73.58;99706.97;5062060;28;20500;-62
2021/07/13 05:49:02;;;;;;;15.27;11.77;;;;;;;19.68;73.46;99703.19;5060713;28;20079;-60
2021/07/13 05:51:28;;;;;;;13.48;10.73;;;;;;;19.77;73.47;99704.59;5061847;28;20090;-62
2021/07/13 05:53:55;;;;;;;13.70;11.27;;;;;;;19.72;72.72;99702.53;5067004;28;20432;-62
2021/07/13 05:56:22;;;;;;;11.30;9.70;;;;;;;19.85;71.28;99697.00;5058965;28;20063;-61
2021/07/13 05:58:48;;;;;;;15.23;10.93;;;;;;;19.90;72.39;99698.28;5063432;28;20056;-62
2021/07/13 06:01:15;;;;;;;12.43;10.73;;;;;;;20.06;72.50;99704.03;5065251;28;20105;-62
2021/07/13 06:03:42;;;;;;;15.45;10.98;;;;;;;20.21;70.97;99695.53;5062679;28;20072;-63
2021/07/13 06:06:09;;;;;;;14.45;10.82;;;;;;;20.36;70.42;99696.09;5062572;28;20056;-63
2021/07/13 06:08:35;;;;;;;15.15;11.73;;;;;;;20.40;70.44;99688.28;5061037;28;20125;-63
2021/07/13 06:11:01;;;;;;;14.30;10.40;;;;;;;20.33;70.71;99692.94;5066777;28;20049;-61
2021/07/13 06:13:28;;;;;;;10.65;9.45;;;;;;;20.42;69.48;99691.66;5066143;28;20527;-59
2021/07/13 06:15:54;;;;;;;12.02;9.77;;;;;;;20.43;69.22;99693.31;5050639;28;20036;-61
2021/07/13 06:18:21;;;;;;;11.55;9.50;;;;;;;20.63;68.61;99690.44;5065257;28;20157;-63
2021/07/13 06:20:49;;;;;;;11.30;9.35;;;;;;;20.60;68.69;99693.59;5069902;28;20125;-62
2021/07/13 06:23:16;;;;;;;12.50;9.15;;;;;;;20.45;68.23;99685.75;5064350;28;20060;-60
2021/07/13 06:25:43;;;;;;;11.18;8.13;;;;;;;20.69;67.55;99693.09;5055233;28;20047;-64
2021/07/13 06:28:09;;;;;;;11.95;9.85;;;;;;;20.80;67.53;99683.34;5052841;28;20139;-59
2021/07/13 06:30:35;;;;;;;11.23;7.97;;;;;;;21.07;68.03;99689.38;5061272;28;20048;-61
2021/07/13 06:33:02;;;;;;;9.10;8.02;;;;;;;21.33;67.38;99684.75;5063158;28;20051;-62
2021/07/13 06:35:29;;;;;;;9.82;8.38;;;;;;;21.30;65.01;99681.38;5063391;28;20063;-59
2021/07/13 06:37:59;;;;;;;9.90;8.88;;;;;;;21.38;64.83;99676.69;5063395;28;20394;-61
2021/07/13 06:40:25;;;;;;;7.82;6.63;;;;;;;21.64;64.94;99690.03;5054145;28;20053;-62
2021/07/13 06:42:51;;;;;;;9.35;7.43;;;;;;;21.78;63.53;99679.75;5063705;28;20060;-62
2021/07/13 06:45:18;;;;;;;8.52;6.07;;;;;;;22.03;63.29;99679.63;5055429;28;20060;-59
2021/07/13 06:47:44;;;;;;;9.00;6.40;;;;;;;22.21;63.00;99695.16;5051858;28;20049;-63
2021/07/13 06:50:12;;;;;;;8.50;6.70;;;;;;;22.29;61.56;99694.84;5045439;22;20116;-77
2021/07/13 06:52:38;;;;;;;7.50;6.05;;;;;;;22.40;61.45;99694.88;5003082;28;20046;-78
2021/07/13 06:55:07;;;;;;;8.85;7.07;;;;;;;22.40;60.96;99691.31;5007432;28;20042;-77
2021/07/13 06:57:33;;;;;;;7.90;7.05;;;;;;;22.53;61.28;99695.72;5009046;28;20054;-78
2021/07/13 07:00:00;;;;;;;7.60;6.63;;;;;;;22.70;61.33;99696.69;5006039;28;20865;-79
2021/07/13 07:02:27;;;;;;;7.80;6.85;;;;;;;22.73;61.06;99693.47;5009347;28;20054;-76
2021/07/13 07:04:54;;;;;;;11.68;8.50;;;;;;;22.91;60.54;99696.13;4986422;28;20092;-78
2021/07/13 07:07:20;;;;;;;7.68;5.75;;;;;;;23.03;58.36;99691.50;5004100;28;20461;-77
2021/07/13 07:09:47;;;;;;;4.88;4.18;;;;;;;22.92;58.13;99696.97;4995402;28;20068;-77
2021/07/13 07:12:14;;;;;;;5.47;4.15;;;;;;;23.28;57.97;99695.88;5005358;28;20058;-78
2021/07/13 07:14:41;;;;;;;5.82;4.10;;;;;;;23.28;57.10;99687.66;4988452;28;20111;-78
2021/07/13 07:17:07;;;;;;;7.85;3.67;;;;;;;23.29;56.09;99686.59;5002056;28;20050;-79
2021/07/13 07:19:34;;;;;;;5.55;4.43;;;;;;;23.25;56.39;99691.72;5004570;28;20054;-78
2021/07/13 07:22:01;;;;;;;10.98;4.00;;;;;;;23.59;57.43;99681.78;5001849;28;20148;-79
2021/07/13 07:24:27;;;;;;;4.57;3.80;;;;;;;23.61;55.80;99678.81;5007570;28;20494;-78
2021/07/13 07:26:54;;;;;;;5.95;3.78;;;;;;;23.74;55.28;99683.19;5003970;28;20050;-79
2021/07/13 07:29:22;;;;;;;5.03;4.05;;;;;;;23.95;56.97;99679.75;4995707;28;20054;-76
2021/07/13 07:31:50;;;;;;;4.97;3.72;;;;;;;24.01;54.56;99683.41;5007794;28;20476;-80
2021/07/13 07:34:17;;;;;;;3.75;3.38;;;;;;;24.04;55.19;99671.97;5002497;28;20046;-78
2021/07/13 07:36:44;;;;;;;4.13;3.58;;;;;;;24.17;54.05;99672.50;5002512;28;20049;-78
2021/07/13 07:39:11;;;;;;;6.75;4.00;;;;;;;24.02;53.01;99668.63;5006293;28;20051;-79
2021/07/13 07:41:40;;;;;;;4.03;3.50;;;;;;;24.17;54.53;99669.75;4990988;28;20101;-78
2021/07/13 07:44:07;;;;;;;4.50;3.72;;;;;;;24.21;53.58;99675.56;5001727;28;20046;-79
2021/07/13 07:46:41;;;;;;;5.13;3.20;;;;;;;24.07;52.44;99672.31;4999019;28;20058;-76
2021/07/13 07:49:08;;;;;;;3.42;2.90;;;;;;;24.10;52.55;99666.34;4991824;28;20423;-77
2021/07/13 07:51:34;;;;;;;3.78;3.20;;;;;;;24.29;52.75;99666.94;5000793;28;20076;-77
2021/07/13 07:54:01;;;;;;;4.18;3.10;;;;;;;24.44;51.72;99660.91;5016752;28;20049;-79
2021/07/13 07:56:27;;;;;;;3.40;2.80;;;;;;;24.66;50.89;99661.84;4995784;28;20055;-78
2021/07/13 07:58:54;;;;;;;3.58;3.00;;;;;;;24.83;51.55;99659.06;5005676;28;20057;-77
2021/07/13 08:01:20;;;;;;;4.07;2.85;;;;;;;24.89;50.76;99655.31;5003649;28;20487;-78
2021/07/13 08:03:48;;;;;;;3.47;2.85;;;;;;;24.99;50.60;99654.66;4999965;28;20046;-78
2021/07/13 08:06:14;;;;;;;3.10;2.67;;;;;;;24.83;49.01;99659.06;5005717;28;20054;-77
2021/07/13 08:08:41;;;;;;;2.88;2.10;;;;;;;24.97;49.97;99654.88;4992027;28;20046;-80
2021/07/13 08:11:07;;;;;;;3.58;2.13;;;;;;;24.74;49.43;99650.44;4996740;28;20100;-79
2021/07/13 08:13:34;;;;;;;2.60;2.25;;;;;;;24.83;48.96;99648.09;5013851;28;20100;-78
2021/07/13 08:16:01;;;;;;;5.90;2.63;;;;;;;25.01;50.17;99650.59;5013508;28;20065;-79
2021/07/13 08:18:27;;;;;;;2.85;2.25;;;;;;;25.17;49.70;99640.66;5006953;28;20054;-80
2021/07/13 08:20:55;;;;;;;5.47;2.70;;;;;;;25.24;50.32;99640.47;5001354;28;20157;-80
2021/07/13 08:23:21;;;;;;;3.17;2.55;;;;;;;25.30;49.82;99633.94;4994583;28;20054;-81
2021/07/13 08:25:48;;;;;;;4.05;2.60;;;;;;;25.29;48.99;99630.38;5002917;28;20037;-81
2021/07/13 08:28:15;;;;;;;3.58;2.67;;;;;;;25.24;50.22;99627.56;4996953;28;20050;-77
2021/07/13 08:30:41;;;;;;;4.15;2.70;;;;;;;24.82;48.91;99632.72;4997833;28;20042;-82
2021/07/13 08:33:08;;;;;;;5.13;3.20;;;;;;;24.94;49.13;99627.94;5012826;28;20069;-79
2021/07/13 08:35:34;;;;;;;3.50;2.88;;;;;;;25.14;49.85;99626.59;5007837;28;20116;-76
2021/07/13 08:38:02;;;;;;;4.97;3.05;;;;;;;25.12;48.14;99626.03;5006839;28;20778;-76
2021/07/13 08:40:30;;;;;;;6.70;2.78;;;;;;;25.03;48.26;99620.97;4997443;28;20081;-78
2021/07/13 08:42:57;;;;;;;3.42;3.00;;;;;;;25.15;48.63;99629.09;4995744;28;20045;-78
2021/07/13 08:45:24;;;;;;;3.92;3.05;;;;;;;25.36;47.11;99624.69;4997932;28;20089;-78
2021/07/13 08:47:52;;;;;;;4.68;2.95;;;;;;;25.79;48.95;99623.84;4991033;28;20039;-76
2021/07/13 08:50:21;;;;;;;4.00;2.80;;;;;;;26.19;47.74;99622.59;4993392;28;20056;-81
2021/07/13 08:52:48;;;;;;;3.00;2.70;;;;;;;26.23;45.11;99616.28;5002546;28;20049;-77
2021/07/13 08:55:16;;;;;;;3.33;2.90;;;;;;;25.85;46.71;99622.81;4999035;28;20046;-79
2021/07/13 08:57:44;;;;;;;3.40;2.80;;;;;;;25.66;47.76;99625.03;4998046;28;20049;-78
2021/07/13 09:00:14;;;;;;;3.13;2.83;;;;;;;25.42;47.97;99628.31;4981053;28;20109;-79
2021/07/13 09:03:06;;;;;;;3.63;2.90;;;;;;;25.43;47.27;99616.25;4999521;28;20046;-79
2021/07/13 09:05:43;;;;;;;3.58;2.70;;;;;;;25.69;49.76;99629.22;4990238;28;20100;-76
2021/07/13 09:08:14;;;;;;;5.07;2.47;;;;;;;25.65;47.89;99623.38;4995631;28;20050;-77
2021/07/13 09:10:59;;;;;;;3.70;2.67;;;;;;;25.68;46.62;99616.53;5001218;28;20053;-78
2021/07/13 09:13:26;;;;;;;3.35;2.90;;;;;;;25.86;47.60;99616.22;5004286;28;20111;-77
2021/07/13 09:15:56;;;;;;;5.85;2.72;;;;;;;26.33;45.57;99621.06;5001930;28;20837;-79
2021/07/13 09:18:29;;;;;;;5.18;2.88;;;;;;;26.43;44.90;99620.34;5001994;28;20084;-77
2021/07/13 09:21:21;;;;;;;3.88;2.50;;;;;;;26.91;43.95;99613.81;5000134;28;20052;-79
2021/07/13 09:24:11;;;;;;;3.70;2.60;;;;;;;26.48;45.34;99610.19;5002442;28;20869;-78
2021/07/13 09:26:51;;;;;;;3.15;2.45;;;;;;;26.87;44.51;99611.81;4995472;28;20178;-78
2021/07/13 09:29:35;;;;;;;2.92;2.30;;;;;;;26.99;44.60;99612.44;5000377;28;20057;-78
2021/07/13 09:32:23;;;;;;;2.95;2.50;;;;;;;26.73;45.55;99614.22;5004283;28;20087;-79
2021/07/13 09:34:51;;;;;;;4.35;2.63;;;;;;;26.55;43.87;99603.66;5009647;28;20046;-78
2021/07/13 09:37:22;;;;;;;4.57;2.67;;;;;;;26.22;44.15;99600.06;4997170;28;20486;-77
2021/07/13 09:39:59;;;;;;;3.20;2.47;;;;;;;26.49;44.91;99592.59;5000583;28;20092;-79
2021/07/13 09:42:29;;;;;;;3.58;2.22;;;;;;;26.97;45.39;99596.19;4995186;28;20058;-77
2021/07/13 09:45:16;;;;;;;3.22;2.67;;;;;;;26.99;44.21;99590.41;5000261;28;20109;-79
2021/07/13 09:47:42;;;;;;;3.15;2.40;;;;;;;26.57;44.85;99595.97;4993911;28;20050;-77
2021/07/13 09:50:11;;;;;;;3.35;2.50;;;;;;;26.64;45.24;99588.28;4990209;28;20050;-77
2021/07/13 09:52:37;;;;;;;3.63;2.80;;;;;;;26.34;45.59;99589.72;5001838;28;20418;-77
2021/07/13 09:55:15;;;;;;;3.63;2.67;;;;;;;26.47;43.45;99592.03;5004765;28;20515;-78
2021/07/13 09:57:44;;;;;;;4.88;2.08;;;;;;;27.06;45.34;99594.63;5000638;28;20046;-80
2021/07/13 10:00:12;;;;;;;5.32;3.05;;;;;;;27.17;44.11;99590.00;5001084;28;20046;-80
2021/07/13 10:02:40;;;;;;;6.68;2.97;;;;;;;27.75;43.27;99596.28;5005599;28;20056;-80
2021/07/13 10:05:07;;;;;;;9.90;3.13;;;;;;;28.02;41.91;99585.00;5007856;28;20100;-78
2021/07/13 10:07:35;;;;;;;3.70;2.20;;;;;;;27.75;40.39;99592.69;5002028;28;20049;-78
2021/07/13 10:10:04;;;;;;;3.97;2.40;;;;;;;27.56;43.27;99592.34;4998909;28;20515;-79
2021/07/13 10:12:32;;;;;;;4.43;2.50;;;;;;;27.46;42.45;99592.31;5007871;28;20533;-82
2021/07/13 10:15:01;;;;;;;2.97;2.20;;;;;;;26.96;43.96;99585.44;4998038;28;20387;-77
2021/07/13 10:17:33;;;;;;;3.30;2.20;;;;;;;27.24;43.46;99589.78;5002764;28;20050;-77
2021/07/13 10:20:08;;;;;;;3.35;2.00;;;;;;;27.37;42.56;99586.50;5006954;28;20049;-79
2021/07/13 10:22:39;;;;;;;2.50;2.25;;;;;;;27.66;41.04;99593.22;5003193;28;20053;-78
2021/07/13 10:25:07;;;;;;;2.72;1.95;;;;;;;27.50;41.21;99588.75;5002532;28;20049;-79
2021/07/13 10:27:35;;;;;;;3.35;2.08;;;;;;;27.60;43.83;99591.53;5002780;28;20046;-78
2021/07/13 10:30:07;;;;;;;4.68;2.35;;;;;;;27.24;43.16;99576.00;5002028;28;20253;-77
2021/07/13 10:32:38;;;;;;;2.78;2.10;;;;;;;27.52;44.21;99586.53;5001453;28;20602;-79
2021/07/13 10:35:16;;;;;;;2.10;1.80;;;;;;;27.96;44.17;99586.13;4995821;28;20086;-78
2021/07/13 10:37:45;;;;;;;2.85;2.40;;;;;;;28.21;41.91;99591.66;5007174;28;20065;-79
2021/07/13 10:40:14;;;;;;;2.55;1.80;;;;;;;27.93;42.25;99578.38;5005611;28;20598;-79
2021/07/13 10:42:51;;;;;;;5.50;1.70;;;;;;;27.79;41.69;99571.75;5001468;28;20137;-78
2021/07/13 10:45:22;;;;;;;3.58;1.75;;;;;;;27.92;42.87;99579.47;4996331;28;20046;-78
2021/07/13 10:48:04;;;;;;;1.75;1.50;;;;;;;28.49;40.86;99581.16;5002911;28;21758;-80
2021/07/13 10:50:36;;;;;;;3.17;2.10;;;;;;;28.15;39.83;99578.94;5004078;28;20042;-77
2021/07/13 10:53:07;;;;;;;1.98;1.70;;;;;;;27.99;41.04;99577.28;5000563;28;20092;-80
2021/07/13 10:55:57;;;;;;;3.40;1.83;;;;;;;27.73;42.92;99576.44;5001814;28;20057;-83
2021/07/13 10:58:29;;;;;;;2.97;1.75;;;;;;;28.00;43.50;99581.69;5002359;28;20077;-78
2021/07/13 11:01:06;;;;;;;3.15;1.77;;;;;;;28.31;42.55;99584.50;4999666;28;20495;-79
2021/07/13 11:04:09;;;;;;;3.05;1.80;;;;;;;28.26;42.07;99583.38;5000631;28;20037;-78
2021/07/13 11:06:59;;;;;;;3.22;1.88;;;;;;;28.06;40.92;99577.88;5001598;28;20053;-77
2021/07/13 11:09:35;;;;;;;2.88;1.80;;;;;;;28.15;40.24;99580.88;4996415;28;20050;-78
2021/07/13 11:12:17;;;;;;;2.28;1.70;;;;;;;28.30;40.75;99574.56;4997360;28;20060;-82
2021/07/13 11:14:58;;;;;;;2.53;1.50;;;;;;;28.24;40.95;99577.28;4993611;28;20050;-78
2021/07/13 11:17:28;;;;;;;2.55;1.63;;;;;;;28.87;39.39;99576.13;4994069;28;20077;-79
2021/07/13 11:20:08;;;;;;;2.72;1.38;;;;;;;29.04;39.24;99571.97;4990173;28;20534;-80
2021/07/13 11:22:36;;;;;;;3.22;2.00;;;;;;;28.99;38.77;99577.50;5002373;28;20065;-78
2021/07/13 11:25:04;;;;;;;2.13;1.88;;;;;;;28.96;39.61;99572.53;4998001;28;20524;-77
2021/07/13 11:27:31;;;;;;;2.08;1.60;;;;;;;28.84;39.78;99572.81;5005918;28;20130;-77
2021/07/13 11:29:58;;;;;;;2.28;1.50;;;;;;;29.10;38.72;99573.59;4993439;28;20054;-77
2021/07/13 11:32:26;;;;;;;1.77;1.38;;;;;;;29.57;38.42;99566.75;4998844;28;20069;-78
2021/07/13 11:34:53;;;;;;;2.65;1.60;;;;;;;29.62;36.95;99571.44;5000524;28;20544;-78